Main page
METAR-TAF:

METAR-TAF

Airports :

Yellowstone Regional Airport

Cody, Wyoming, United States

latitude: 44-31N, longitude: 109-01W, elevation: 5087 ft

Current weather observation

The report was made 40 minutes ago, at 11:56 UTC
Wind 15 mph from the West with gusts up to 23 mph
Temperature 37°F
Humidity 35%
Pressure 30.14 in. Hg
Visibility: 10 miles
Clear sky

METAR: KCOD 231156Z AUTO 26013G20KT 10SM CLR 03/M11 A3014 RMK AO2 SLP210 T00281106 10033 20022 58005

Time: 05:36 (12:36 UTC)

Forecast

The report was made 1 hour and 15 minutes ago, at 11:21 UTC
Forecast valid from 23 at 12 UTC to 24 at 12 UTC
Wind 14 mph from the West with gusts up to 21 mph
Visibility: 6 miles
Few clouds at a height of 15000 ft
From 23 at 1700 UTC
Wind 17 mph from the West with gusts up to 29 mph
Visibility: 6 miles
Few clouds at a height of 25000 ft

TAF: KCOD 231121Z 2312/2412 27012G18KT P6SM FEW150 FM231700 26015G25KT P6SM FEW250

Weather observations and forecasts of more than 4000 airports (METAR and TAF reports).

The available stations are represented by yellow and red dots on the map.

Hover mouse over dot to see the name of the station.

Then click to see weather observations and forecasts.

To change the map : click on the green buttons with a black cross to zoom in, on the green button with a dash to zoom out, or on the green arrows for adjacent maps.


METAR-TAF: